Hlavní strana
METAR-TAF:

METAR-TAF

Letiště :

Letiště Ankara-Esenboğa

Ankara Esenboğa, Turecko

zeměpisná šířka: 40-07N, zeměpisná délka: 032-59E, výška: 953 m

Aktuální stav počasí

Zpráva byla vytvořena před 17 minutami, v 22:20 UTC
Severovýchodní vítr 2 kt
Teplota 0°C
Vlhkost vzduchu 64%
Tlak 1019 hPa
Viditelnost: 8000 m

METAR: LTAC 222220Z 04002KT 8000 NSC M00/M06 Q1019 NOSIG RMK RWY21L 03002KT RWY03L 04002KT RWY21R 00000KT

Čas: 01:37 (22:37 UTC)

Předpověď počasí

Zpráva byla vytvořena před 5 hodinami a 57 minutami, v 16:40 UTC
Předpověď platná od 22 v 18 UTC do 23 v 18 UTC
vítr z různých směrů 2 kt
Viditelnost: 8000 m
Dočasný
od 23 v 03 UTC do 23 v 05 UTC
Viditelnost: 4000 m
kouřmo
Změna
od 23 v 07 UTC do 23 v 09 UTC
Polojasno ve výšce 4000 ft

TAF: LTAC 221640Z 2218/2318 VRB02KT 8000 NSC TEMPO 2303/2305 4000 BR BECMG 2307/2309 SCT040

Stav a předpovědi počasí z více než 4 000 letišť (zprávy METAR a TAF).

Červené a žluté tečky na mapě představují dostupné meteorologické stanice.

Když kurzor umístíte na tečku, zobrazí se název stanice.

Pak kliknutím zobrazíte stav a předpověď počasí.

Chcete-li změnit mapu, kliknutím na zelené tlačítko se znaménkem +mapu přiblížíte, kliknutím na zelené tlačítko se znaménkem – mapu oddálíte a kliknutím na zelené šipky přejdete na sousední mapy.


METAR-TAF: